Time;durP1;ratioP1;P1;durP2;ratioP2;P2;SDS_P1;SDS_P2;PMS_P1;PMS_P2;Temp;Humidity;BMP_temperature;BMP_pressure;BME280_temperature;BME280_humidity;BME280_pressure;Samples;Min_cycle;Max_cycle;Signal;HPM_P1;HPM_P2
2024/03/20 00:00:29;;;;;;;8.00;2.70;;;9.90;99.90;;;;;;5034875;28;20041;-47
2024/03/20 00:02:55;;;;;;;6.10;2.33;;;9.80;99.90;;;;;;5050060;28;20481;-50
2024/03/20 00:05:20;;;;;;;12.00;5.07;;;9.80;99.90;;;;;;5034585;28;20445;-48
2024/03/20 00:07:46;;;;;;;9.80;5.30;;;9.80;99.90;;;;;;5034744;28;20048;-48
2024/03/20 00:10:12;;;;;;;7.77;3.60;;;9.80;99.90;;;;;;5034565;28;20033;-47
2024/03/20 00:12:41;;;;;;;10.07;3.20;;;9.80;99.90;;;;;;5034596;28;20040;-49
2024/03/20 00:15:08;;;;;;;8.32;3.00;;;9.90;99.90;;;;;;5034456;28;20405;-52
2024/03/20 00:17:34;;;;;;;6.73;3.00;;;9.90;99.90;;;;;;5034575;28;20083;-48
2024/03/20 00:20:00;;;;;;;10.73;2.87;;;9.90;99.90;;;;;;5034511;28;20034;-49
2024/03/20 00:22:26;;;;;;;6.73;2.50;;;9.90;99.90;;;;;;5034490;28;20033;-48
2024/03/20 00:24:52;;;;;;;5.57;2.73;;;10.00;99.90;;;;;;5034250;28;20057;-47
2024/03/20 00:27:18;;;;;;;5.87;2.33;;;10.10;99.90;;;;;;5034361;28;20088;-51
2024/03/20 00:29:43;;;;;;;7.43;2.30;;;10.10;99.90;;;;;;5034362;28;20060;-50
2024/03/20 00:32:09;;;;;;;7.70;2.70;;;10.10;99.90;;;;;;5034284;28;20112;-47
2024/03/20 00:34:35;;;;;;;8.20;2.60;;;10.10;99.90;;;;;;5034139;28;20091;-51
2024/03/20 00:37:00;;;;;;;5.87;2.43;;;10.20;99.90;;;;;;5034167;28;20037;-47
2024/03/20 00:39:26;;;;;;;4.77;2.37;;;10.20;99.90;;;;;;5034102;28;20029;-49
2024/03/20 00:41:52;;;;;;;5.43;2.30;;;10.10;99.90;;;;;;5033976;28;20034;-51
2024/03/20 00:44:18;;;;;;;6.07;2.70;;;10.10;99.90;;;;;;5034212;28;20041;-49
2024/03/20 00:46:44;;;;;;;8.53;2.43;;;10.10;99.90;;;;;;5033925;28;20037;-49
2024/03/20 00:49:09;;;;;;;5.37;2.10;;;10.10;99.90;;;;;;5033942;28;20091;-50
2024/03/20 00:51:35;;;;;;;7.03;2.57;;;10.10;99.90;;;;;;5033884;28;20026;-51
2024/03/20 00:54:00;;;;;;;7.63;2.47;;;10.00;99.90;;;;;;5033673;28;20399;-49
2024/03/20 00:56:26;;;;;;;5.40;2.43;;;10.00;99.90;;;;;;5033733;28;20036;-50
2024/03/20 00:58:52;;;;;;;6.43;2.60;;;10.00;99.90;;;;;;5032927;28;20460;-49
2024/03/20 01:01:17;;;;;;;6.27;2.60;;;10.00;99.90;;;;;;5033610;28;20033;-51
2024/03/20 01:03:43;;;;;;;7.07;2.57;;;10.00;99.90;;;;;;5033546;28;20038;-50
2024/03/20 01:06:08;;;;;;;6.27;2.87;;;10.00;99.90;;;;;;5033644;28;20026;-51
2024/03/20 01:08:36;;;;;;;5.77;2.60;;;10.10;99.90;;;;;;5033645;28;20049;-48
2024/03/20 01:11:03;;;;;;;7.17;2.30;;;10.10;99.90;;;;;;5033350;28;20076;-50
2024/03/20 01:13:29;;;;;;;6.83;2.40;;;10.20;99.90;;;;;;5033364;28;20026;-49
2024/03/20 01:15:54;;;;;;;6.17;2.50;;;10.30;99.90;;;;;;5033450;28;20083;-47
2024/03/20 01:18:20;;;;;;;7.83;3.03;;;10.40;99.90;;;;;;5033560;28;20053;-48
2024/03/20 01:20:45;;;;;;;5.30;2.67;;;10.50;99.90;;;;;;5033361;28;20029;-47
2024/03/20 01:23:13;;;;;;;5.70;2.43;;;10.40;99.90;;;;;;5033463;28;20505;-49
2024/03/20 01:25:38;;;;;;;7.30;2.77;;;10.30;99.90;;;;;;5033222;28;20034;-51
2024/03/20 01:28:04;;;;;;;5.73;2.10;;;10.30;99.90;;;;;;5033195;28;20384;-47
2024/03/20 01:30:30;;;;;;;5.60;2.47;;;10.20;99.90;;;;;;5032986;28;20068;-50
2024/03/20 01:32:56;;;;;;;4.67;2.47;;;10.10;99.90;;;;;;5033172;28;20034;-48
2024/03/20 01:35:21;;;;;;;5.73;2.40;;;10.00;99.90;;;;;;5033357;28;20026;-49
2024/03/20 01:37:47;;;;;;;6.23;2.80;;;10.00;99.90;;;;;;5033132;28;20036;-51
2024/03/20 01:40:12;;;;;;;7.27;2.83;;;9.90;99.90;;;;;;5032920;28;20390;-51
2024/03/20 01:42:38;;;;;;;5.30;2.70;;;9.90;99.90;;;;;;5033070;28;20392;-51
2024/03/20 01:45:14;;;;;;;5.43;2.53;;;9.90;99.90;;;;;;5032679;28;20059;-50
2024/03/20 01:47:44;;;;;;;5.97;2.80;;;9.80;99.90;;;;;;5033215;28;20469;-47
2024/03/20 01:50:11;;;;;;;7.13;2.50;;;9.80;99.90;;;;;;5047925;28;20061;-50
2024/03/20 01:52:56;;;;;;;5.50;2.60;;;9.80;99.90;;;;;;5032880;28;20036;-51
2024/03/20 01:55:23;;;;;;;6.03;2.87;;;9.70;99.90;;;;;;5032492;28;20124;-47
2024/03/20 01:57:50;;;;;;;6.40;2.83;;;9.70;99.90;;;;;;5032801;28;20036;-49
2024/03/20 02:00:21;;;;;;;11.47;3.17;;;9.80;99.90;;;;;;5032607;28;20120;-50
2024/03/20 02:02:49;;;;;;;7.30;2.80;;;9.80;99.90;;;;;;5032637;28;20043;-47
2024/03/20 02:05:14;;;;;;;4.60;2.03;;;9.90;99.90;;;;;;5032287;28;20029;-50
2024/03/20 02:07:40;;;;;;;5.93;2.80;;;9.90;99.90;;;;;;5032618;28;20529;-50
2024/03/20 02:10:06;;;;;;;5.33;2.37;;;10.00;99.90;;;;;;5032100;28;20063;-52
2024/03/20 02:12:32;;;;;;;7.90;3.00;;;9.90;99.90;;;;;;5032457;28;20030;-49
2024/03/20 02:15:04;;;;;;;7.80;3.10;;;9.90;99.90;;;;;;5032167;28;20029;-50
2024/03/20 02:17:29;;;;;;;7.07;2.80;;;10.00;99.90;;;;;;5032909;28;20034;-47
2024/03/20 02:19:55;;;;;;;6.47;2.83;;;10.10;99.90;;;;;;5032212;28;20032;-52
2024/03/20 02:22:20;;;;;;;5.47;2.90;;;10.10;99.90;;;;;;5032333;28;20068;-48
2024/03/20 02:24:46;;;;;;;6.63;3.30;;;10.00;99.90;;;;;;5030806;28;20059;-47
2024/03/20 02:27:11;;;;;;;6.93;2.67;;;10.10;99.90;;;;;;5032222;28;20029;-50
2024/03/20 02:29:37;;;;;;;5.60;2.73;;;10.10;99.90;;;;;;5032089;28;20041;-48
2024/03/20 02:32:03;;;;;;;6.80;2.83;;;10.10;99.90;;;;;;5032185;28;20036;-49
2024/03/20 02:34:29;;;;;;;6.83;2.73;;;10.10;99.90;;;;;;5032403;28;20060;-52
2024/03/20 02:36:54;;;;;;;6.43;2.87;;;10.10;99.90;;;;;;5032014;28;20107;-48
2024/03/20 02:39:21;;;;;;;7.90;2.90;;;10.00;99.90;;;;;;5032066;28;20025;-49
2024/03/20 02:41:47;;;;;;;6.93;2.90;;;10.00;99.90;;;;;;5031969;28;20083;-51
2024/03/20 02:44:14;;;;;;;6.40;2.73;;;10.00;99.90;;;;;;5031779;28;20493;-51
2024/03/20 02:46:40;;;;;;;6.33;3.03;;;10.00;99.90;;;;;;5031954;28;20033;-47
2024/03/20 02:49:06;;;;;;;5.77;3.27;;;10.00;99.90;;;;;;5031699;28;20159;-48
2024/03/20 02:51:31;;;;;;;6.33;2.90;;;10.00;99.90;;;;;;5031865;28;20033;-48
2024/03/20 02:53:57;;;;;;;5.57;2.60;;;9.90;99.90;;;;;;5031608;28;20389;-47
2024/03/20 02:56:23;;;;;;;5.57;2.53;;;9.90;99.90;;;;;;5031906;28;20463;-50
2024/03/20 02:58:48;;;;;;;4.50;2.80;;;9.90;99.90;;;;;;5031758;28;20025;-48
2024/03/20 03:01:14;;;;;;;7.43;3.03;;;9.90;99.90;;;;;;5031781;28;20421;-49
2024/03/20 03:03:39;;;;;;;7.17;3.47;;;9.80;99.90;;;;;;5031574;28;20037;-50
2024/03/20 03:06:05;;;;;;;6.20;2.83;;;9.70;99.90;;;;;;5031652;28;20109;-48
2024/03/20 03:08:31;;;;;;;6.30;3.40;;;9.70;99.90;;;;;;5031703;28;20067;-48
2024/03/20 03:10:56;;;;;;;7.73;3.40;;;9.70;99.90;;;;;;5031599;28;20556;-50
2024/03/20 03:13:22;;;;;;;7.50;3.13;;;9.70;99.90;;;;;;5031686;28;20048;-49
2024/03/20 03:15:48;;;;;;;7.67;3.30;;;9.70;99.90;;;;;;5031915;28;20025;-47
2024/03/20 03:18:13;;;;;;;6.97;2.87;;;9.70;99.90;;;;;;5031571;28;20029;-48
2024/03/20 03:20:42;;;;;;;5.27;2.90;;;9.60;99.90;;;;;;5031602;28;20025;-48
2024/03/20 03:23:07;;;;;;;6.85;2.63;;;9.60;99.90;;;;;;5033737;28;20397;-49
2024/03/20 03:25:33;;;;;;;7.13;3.20;;;9.60;99.90;;;;;;5035702;28;20227;-52
2024/03/20 03:27:59;;;;;;;6.13;3.13;;;9.70;99.90;;;;;;5035540;28;20052;-49
2024/03/20 03:30:25;;;;;;;6.40;2.63;;;9.70;99.90;;;;;;5035311;28;20029;-50
2024/03/20 03:32:50;;;;;;;8.83;3.37;;;9.70;99.90;;;;;;5035413;28;20029;-47
2024/03/20 03:35:17;;;;;;;6.47;2.77;;;9.70;99.90;;;;;;5035124;28;20083;-46
2024/03/20 03:37:43;;;;;;;5.83;3.17;;;9.70;99.90;;;;;;5035469;28;20041;-49
2024/03/20 03:40:10;;;;;;;8.97;3.37;;;9.80;99.90;;;;;;5035201;28;20099;-47
2024/03/20 03:42:37;;;;;;;7.57;3.43;;;9.90;99.90;;;;;;5035265;28;20117;-48
2024/03/20 03:45:03;;;;;;;6.17;3.37;;;9.80;99.90;;;;;;5034997;28;20116;-52
2024/03/20 03:47:32;;;;;;;5.47;2.83;;;9.80;99.90;;;;;;5035663;28;20057;-49
2024/03/20 03:49:57;;;;;;;5.90;3.03;;;9.80;99.90;;;;;;5033968;28;20404;-48
2024/03/20 03:52:23;;;;;;;6.77;3.37;;;9.80;99.90;;;;;;5035129;28;20026;-51
2024/03/20 03:54:49;;;;;;;9.10;2.73;;;9.70;99.90;;;;;;5034695;28;20030;-51
2024/03/20 03:57:14;;;;;;;8.70;3.53;;;9.70;99.90;;;;;;5035253;28;20332;-52
2024/03/20 03:59:40;;;;;;;11.57;3.93;;;9.60;99.90;;;;;;5034823;28;20029;-50
2024/03/20 04:02:06;;;;;;;6.43;3.10;;;9.70;99.90;;;;;;5034855;28;20084;-48
2024/03/20 04:04:31;;;;;;;7.30;3.40;;;9.60;99.90;;;;;;5034730;28;20021;-52
2024/03/20 04:06:57;;;;;;;5.87;3.13;;;9.60;99.90;;;;;;5034839;28;20398;-50
2024/03/20 04:09:22;;;;;;;6.57;3.33;;;9.60;99.90;;;;;;5034680;28;20025;-50
2024/03/20 04:11:48;;;;;;;8.40;3.50;;;9.50;99.90;;;;;;5034667;28;20071;-50
2024/03/20 04:14:15;;;;;;;6.83;3.07;;;9.40;99.90;;;;;;5034518;28;20482;-47
2024/03/20 04:16:41;;;;;;;5.63;2.97;;;9.40;99.90;;;;;;5034524;28;20034;-47
2024/03/20 04:19:07;;;;;;;6.20;2.93;;;9.30;99.90;;;;;;5034788;28;20033;-48
2024/03/20 04:21:33;;;;;;;7.20;3.13;;;9.30;99.90;;;;;;5034454;28;20037;-49
2024/03/20 04:23:58;;;;;;;6.60;3.57;;;9.20;99.90;;;;;;5034346;28;20033;-48
2024/03/20 04:26:24;;;;;;;7.60;3.47;;;9.20;99.90;;;;;;5034401;28;20029;-49
2024/03/20 04:28:50;;;;;;;6.10;3.00;;;9.40;99.90;;;;;;5034360;28;20037;-48
2024/03/20 04:31:15;;;;;;;5.20;2.93;;;9.50;99.90;;;;;;5034128;28;20115;-48
2024/03/20 04:33:41;;;;;;;6.07;3.03;;;9.50;99.90;;;;;;5033106;28;20099;-49
2024/03/20 04:36:08;;;;;;;7.43;3.10;;;9.60;99.90;;;;;;5033862;28;20026;-46
2024/03/20 04:38:38;;;;;;;7.00;3.10;;;9.60;99.90;;;;;;5034269;28;20044;-50
2024/03/20 04:41:04;;;;;;;6.83;3.53;;;9.60;99.90;;;;;;5034138;28;20051;-47
2024/03/20 04:43:30;;;;;;;8.13;3.50;;;9.50;99.90;;;;;;5034081;28;20263;-48
2024/03/20 04:45:56;;;;;;;7.03;3.00;;;9.40;99.90;;;;;;5034039;28;20366;-48
2024/03/20 04:48:22;;;;;;;8.40;3.63;;;9.40;99.90;;;;;;5034015;28;20044;-49
2024/03/20 04:50:47;;;;;;;6.37;3.17;;;9.30;99.90;;;;;;5033999;28;20090;-50
2024/03/20 04:53:13;;;;;;;6.00;3.30;;;9.30;99.90;;;;;;5034027;28;20030;-50
2024/03/20 04:55:39;;;;;;;7.13;3.20;;;9.30;99.90;;;;;;5033894;28;20036;-48
2024/03/20 04:58:04;;;;;;;7.80;3.60;;;9.30;99.90;;;;;;5034027;28;20440;-48
2024/03/20 05:00:30;;;;;;;6.83;3.70;;;9.30;99.90;;;;;;5032622;28;20037;-49
2024/03/20 05:02:55;;;;;;;7.43;3.40;;;9.30;99.90;;;;;;5033891;28;20041;-48
2024/03/20 05:05:21;;;;;;;8.20;3.57;;;9.30;99.90;;;;;;5033991;28;20393;-50
2024/03/20 05:07:47;;;;;;;9.00;3.80;;;9.30;99.90;;;;;;5034022;28;20029;-49
2024/03/20 05:10:12;;;;;;;8.33;3.63;;;9.30;99.90;;;;;;5033510;28;20397;-48
2024/03/20 05:12:38;;;;;;;8.73;3.40;;;9.30;99.90;;;;;;5033649;28;20025;-48
2024/03/20 05:15:05;;;;;;;7.63;3.90;;;9.40;99.90;;;;;;5033401;28;20470;-46
2024/03/20 05:17:30;;;;;;;6.77;3.60;;;9.40;99.90;;;;;;5033596;28;20075;-47
2024/03/20 05:19:56;;;;;;;7.77;3.87;;;9.40;99.90;;;;;;5033424;28;20034;-49
2024/03/20 05:22:22;;;;;;;7.83;3.13;;;9.40;99.90;;;;;;5033476;28;20060;-47
2024/03/20 05:24:50;;;;;;;6.40;3.40;;;9.50;99.90;;;;;;5033184;28;20033;-46
2024/03/20 05:27:15;;;;;;;6.17;3.47;;;9.50;99.90;;;;;;5033478;28;20064;-47
2024/03/20 05:29:41;;;;;;;7.97;3.40;;;9.60;99.90;;;;;;5033204;28;20072;-49
2024/03/20 05:32:07;;;;;;;7.30;3.40;;;9.60;99.90;;;;;;5033443;28;20124;-48
2024/03/20 05:34:33;;;;;;;19.20;7.33;;;9.60;99.90;;;;;;5033110;28;20025;-48
2024/03/20 05:36:58;;;;;;;16.20;6.60;;;9.60;99.90;;;;;;5033237;28;20030;-47
2024/03/20 05:39:24;;;;;;;9.47;4.40;;;9.50;99.90;;;;;;5033097;28;20091;-46
2024/03/20 05:41:49;;;;;;;6.87;3.70;;;9.60;99.90;;;;;;5033021;28;20022;-47
2024/03/20 05:44:17;;;;;;;8.30;4.23;;;9.50;99.90;;;;;;5032883;28;20407;-47
2024/03/20 05:46:49;;;;;;;8.00;4.00;;;9.50;99.90;;;;;;5032451;28;20486;-47
2024/03/20 05:49:15;;;;;;;16.97;8.67;;;9.60;99.90;;;;;;5032884;28;20048;-49
2024/03/20 05:51:41;;;;;;;10.13;4.87;;;9.70;99.90;;;;;;5033234;28;20464;-48
2024/03/20 05:54:06;;;;;;;8.37;4.10;;;9.80;99.90;;;;;;5032727;28;20025;-47
2024/03/20 05:56:32;;;;;;;7.70;4.10;;;9.80;99.90;;;;;;5032584;28;20036;-47
2024/03/20 05:58:58;;;;;;;6.87;3.70;;;9.90;99.90;;;;;;5032702;28;20429;-48
2024/03/20 06:01:23;;;;;;;8.10;4.10;;;9.90;99.90;;;;;;5032916;28;20496;-46
2024/03/20 06:03:49;;;;;;;9.93;4.20;;;9.90;99.90;;;;;;5032608;28;20087;-48
2024/03/20 06:06:15;;;;;;;8.70;3.53;;;9.90;99.90;;;;;;5032715;28;20025;-51
2024/03/20 06:08:41;;;;;;;9.43;4.87;;;10.00;99.90;;;;;;5032640;28;20040;-46
2024/03/20 06:11:06;;;;;;;11.03;4.07;;;10.00;99.90;;;;;;5032371;28;20045;-52
2024/03/20 06:13:32;;;;;;;7.40;3.93;;;10.00;99.90;;;;;;5032481;28;20394;-50
2024/03/20 06:15:58;;;;;;;8.87;4.03;;;10.00;99.90;;;;;;5032435;28;20481;-49
2024/03/20 06:18:24;;;;;;;10.63;3.60;;;10.10;99.90;;;;;;5032455;28;20040;-50
2024/03/20 06:20:50;;;;;;;8.77;3.90;;;10.10;99.90;;;;;;5032309;28;20394;-47
2024/03/20 06:23:16;;;;;;;10.73;4.70;;;10.10;99.90;;;;;;5032266;28;20037;-49
2024/03/20 06:25:41;;;;;;;10.30;4.13;;;10.20;99.90;;;;;;5032075;28;20133;-48
2024/03/20 06:28:07;;;;;;;8.57;4.07;;;10.20;99.90;;;;;;5032313;28;20040;-47
2024/03/20 06:30:32;;;;;;;7.03;3.70;;;10.30;99.90;;;;;;5032161;28;20041;-48
2024/03/20 06:32:59;;;;;;;9.47;4.10;;;10.40;99.90;;;;;;5032284;28;20025;-46
2024/03/20 06:35:24;;;;;;;9.00;4.03;;;10.50;99.90;;;;;;5032074;28;20393;-48
2024/03/20 06:37:50;;;;;;;7.87;3.77;;;10.50;99.90;;;;;;5032173;28;20029;-48
2024/03/20 06:40:16;;;;;;;5.60;3.43;;;10.70;99.90;;;;;;5032052;28;20065;-50
2024/03/20 06:42:42;;;;;;;9.53;4.33;;;10.80;99.90;;;;;;5032465;28;20108;-48
2024/03/20 06:45:08;;;;;;;7.70;3.80;;;10.80;99.90;;;;;;5030695;28;20164;-47
2024/03/20 06:47:35;;;;;;;7.97;3.80;;;10.90;99.90;;;;;;5032153;28;20037;-46
2024/03/20 06:50:02;;;;;;;7.93;4.20;;;11.00;99.90;;;;;;5031934;28;20034;-47
2024/03/20 06:52:31;;;;;;;7.20;3.40;;;11.10;99.90;;;;;;5032048;28;20323;-48
2024/03/20 06:54:58;;;;;;;8.05;4.18;;;11.20;99.90;;;;;;5031582;28;20040;-48
2024/03/20 06:57:24;;;;;;;7.03;3.50;;;11.30;99.90;;;;;;5031177;28;20057;-47
2024/03/20 06:59:50;;;;;;;7.80;3.77;;;11.40;99.90;;;;;;5031838;28;20052;-47
2024/03/20 07:02:16;;;;;;;11.73;6.20;;;11.50;99.90;;;;;;5031864;28;20037;-48
2024/03/20 07:04:42;;;;;;;17.63;6.87;;;11.60;99.90;;;;;;5031801;28;20035;-51
2024/03/20 07:07:11;;;;;;;10.70;5.20;;;11.70;99.90;;;;;;5031721;28;20025;-48
2024/03/20 07:09:37;;;;;;;11.88;4.88;;;11.90;99.90;;;;;;5031721;28;20061;-50
2024/03/20 07:12:03;;;;;;;10.50;4.63;;;12.10;99.90;;;;;;5031860;28;20036;-50
2024/03/20 07:14:30;;;;;;;6.73;4.00;;;12.10;99.90;;;;;;5031549;28;20112;-48
2024/03/20 07:16:56;;;;;;;8.70;4.07;;;12.10;99.90;;;;;;5031645;28;20108;-50
2024/03/20 07:19:23;;;;;;;9.90;4.30;;;12.20;99.90;;;;;;5031666;28;20056;-50
2024/03/20 07:21:48;;;;;;;10.37;4.30;;;12.10;99.90;;;;;;5031516;28;20409;-48
2024/03/20 07:24:15;;;;;;;8.77;4.30;;;12.30;99.90;;;;;;5031480;28;20030;-47
2024/03/20 07:26:41;;;;;;;8.80;3.85;;;12.40;99.90;;;;;;5031642;28;20029;-50
2024/03/20 07:29:09;;;;;;;7.43;3.92;;;12.60;99.90;;;;;;5031675;28;20025;-50
2024/03/20 07:31:35;;;;;;;9.00;4.23;;;12.80;99.90;;;;;;5030251;28;20037;-46
2024/03/20 07:34:03;;;;;;;7.60;4.10;;;13.00;99.90;;;;;;5031414;28;20780;-48
2024/03/20 07:36:29;;;;;;;7.30;3.72;;;13.30;99.90;;;;;;5031344;28;20037;-49
2024/03/20 07:38:58;;;;;;;8.38;4.05;;;13.50;99.90;;;;;;5031512;28;20034;-51
2024/03/20 07:41:24;;;;;;;8.88;4.03;;;13.60;99.90;;;;;;5031520;28;20030;-49
2024/03/20 07:43:49;;;;;;;7.93;3.97;;;13.70;99.90;;;;;;5031379;28;20091;-48
2024/03/20 07:46:15;;;;;;;7.78;3.97;;;13.80;99.90;;;;;;5031439;28;20413;-51
2024/03/20 07:48:46;;;;;;;8.68;4.18;;;13.90;99.90;;;;;;5031563;28;20040;-48
2024/03/20 07:51:15;;;;;;;8.77;4.05;;;14.00;99.90;;;;;;5031840;28;20037;-47
2024/03/20 07:53:44;;;;;;;8.80;4.00;;;14.10;99.90;;;;;;5031306;28;20394;-48
2024/03/20 07:56:10;;;;;;;9.05;4.00;;;14.10;99.90;;;;;;5031795;28;20021;-48
2024/03/20 07:58:37;;;;;;;10.88;4.13;;;14.20;99.90;;;;;;5031599;28;20375;-48
2024/03/20 08:01:04;;;;;;;6.90;3.55;;;14.40;99.90;;;;;;5031192;28;20107;-49
2024/03/20 08:03:30;;;;;;;7.40;3.92;;;14.50;99.90;;;;;;5046356;28;20124;-50
2024/03/20 08:05:56;;;;;;;8.70;4.22;;;14.70;99.90;;;;;;5031227;28;20453;-49
2024/03/20 08:08:21;;;;;;;8.18;3.60;;;14.90;99.90;;;;;;5031961;28;20105;-52
2024/03/20 08:10:47;;;;;;;7.65;4.10;;;14.90;99.90;;;;;;5035385;28;20083;-47
2024/03/20 08:13:14;;;;;;;8.35;4.10;;;15.10;99.90;;;;;;5035590;28;20029;-50
2024/03/20 08:15:40;;;;;;;7.10;3.60;;;15.20;99.90;;;;;;5035265;28;20034;-52
2024/03/20 08:18:11;;;;;;;8.00;3.88;;;15.20;99.90;;;;;;5034810;28;20040;-52
2024/03/20 08:20:40;;;;;;;6.82;3.40;;;15.40;99.90;;;;;;5035212;28;20040;-51
2024/03/20 08:23:06;;;;;;;6.38;3.85;;;15.40;99.90;;;;;;5034613;28;20029;-51
2024/03/20 08:25:32;;;;;;;9.07;3.85;;;15.60;99.90;;;;;;5034176;28;20083;-48
2024/03/20 08:27:57;;;;;;;8.68;3.97;;;15.40;99.90;;;;;;5034467;28;20030;-47
2024/03/20 08:30:24;;;;;;;10.98;3.95;;;15.50;99.90;;;;;;5034203;28;20029;-51
2024/03/20 08:32:50;;;;;;;7.75;4.05;;;15.60;99.90;;;;;;5034324;28;20448;-50
2024/03/20 08:35:17;;;;;;;6.80;3.50;;;15.80;99.90;;;;;;5034070;28;20028;-51
2024/03/20 08:37:45;;;;;;;6.90;4.00;;;15.90;99.90;;;;;;5034286;28;20041;-50
2024/03/20 08:40:13;;;;;;;6.43;3.45;;;16.20;99.90;;;;;;5034254;28;20029;-52
2024/03/20 08:42:38;;;;;;;9.70;3.90;;;16.40;99.90;;;;;;5034240;28;20072;-52
2024/03/20 08:45:05;;;;;;;7.55;3.85;;;16.50;99.90;;;;;;5033934;28;20072;-51
2024/03/20 08:47:32;;;;;;;7.20;3.28;;;16.60;99.90;;;;;;5034123;28;20034;-49
2024/03/20 08:49:57;;;;;;;8.85;4.00;;;16.70;99.90;;;;;;5033929;28;20040;-51
2024/03/20 08:52:23;;;;;;;8.38;3.50;;;16.70;99.90;;;;;;5034151;28;20393;-50
2024/03/20 08:54:49;;;;;;;7.55;3.58;;;16.90;99.90;;;;;;5033876;28;20112;-50
2024/03/20 08:57:18;;;;;;;6.53;3.15;;;17.00;99.90;;;;;;5034079;28;20458;-49
2024/03/20 08:59:44;;;;;;;;;;;17.20;99.90;;;;;;5034339;28;20282;-48
2024/03/20 09:02:10;;;;;;;7.47;3.22;;;17.10;99.90;;;;;;5033892;28;20027;-50
2024/03/20 09:04:36;;;;;;;11.18;3.72;;;17.20;99.90;;;;;;5033609;28;20541;-52
2024/03/20 09:07:02;;;;;;;6.53;3.30;;;17.20;99.90;;;;;;5033790;28;20038;-49
2024/03/20 09:09:31;;;;;;;6.07;3.47;;;17.40;99.90;;;;;;5033628;28;20036;-51
2024/03/20 09:11:58;;;;;;;7.15;3.63;;;17.60;99.90;;;;;;5033726;28;20478;-49
2024/03/20 09:14:23;;;;;;;6.05;3.70;;;17.70;99.90;;;;;;5033520;28;20036;-52
2024/03/20 09:16:50;;;;;;;8.93;3.80;;;17.80;99.90;;;;;;5033580;28;20378;-50
2024/03/20 09:19:22;;;;;;;6.90;4.15;;;17.80;99.90;;;;;;5033736;28;20052;-48
2024/03/20 09:21:50;;;;;;;7.03;3.80;;;18.00;99.90;;;;;;5032755;28;20032;-49
2024/03/20 09:24:18;;;;;;;7.05;3.50;;;18.10;99.90;;;;;;5033320;28;20026;-49
2024/03/20 09:26:44;;;;;;;8.65;3.80;;;18.20;99.90;;;;;;5033214;28;20502;-49
2024/03/20 09:29:11;;;;;;;9.30;3.45;;;18.20;99.90;;;;;;5033255;28;20084;-50
2024/03/20 09:31:37;;;;;;;7.05;3.28;;;18.40;99.90;;;;;;5033140;28;20064;-48
2024/03/20 09:34:02;;;;;;;5.70;3.00;;;18.70;99.90;;;;;;5048636;28;20463;-52
2024/03/20 09:36:28;;;;;;;8.60;3.50;;;18.70;99.90;;;;;;5033227;28;20030;-51
2024/03/20 09:38:55;;;;;;;6.55;3.05;;;19.10;99.90;;;;;;5033189;28;20367;-51
2024/03/20 09:41:22;;;;;;;5.90;3.05;;;19.50;99.90;;;;;;5033110;28;20041;-52
2024/03/20 09:43:52;;;;;;;7.25;3.92;;;19.80;99.90;;;;;;5032939;28;20029;-52
2024/03/20 09:46:19;;;;;;;9.30;4.25;;;20.30;99.90;;;;;;5033053;28;20486;-51
2024/03/20 09:48:49;;;;;;;9.05;3.83;;;20.70;99.90;;;;;;5032993;28;20107;-52
2024/03/20 09:51:19;;;;;;;7.38;3.72;;;21.30;99.60;;;;;;5032893;28;20034;-52
2024/03/20 09:53:53;;;;;;;7.47;4.30;;;21.70;99.50;;;;;;5032600;28;20038;-52
2024/03/20 09:56:25;;;;;;;6.82;3.55;;;22.30;97.90;;;;;;5032827;28;20128;-51
2024/03/20 09:58:53;;;;;;;8.85;4.15;;;22.50;97.20;;;;;;5032916;28;20036;-51
2024/03/20 10:01:20;;;;;;;10.17;4.10;;;22.40;96.70;;;;;;5032686;28;20030;-50
2024/03/20 10:03:53;;;;;;;5.63;3.53;;;22.50;96.20;;;;;;5032532;28;20037;-51
2024/03/20 10:06:22;;;;;;;8.93;4.57;;;22.30;96.50;;;;;;5032546;28;20103;-53
2024/03/20 10:08:48;;;;;;;9.23;5.15;;;22.40;96.70;;;;;;5032407;28;20029;-52
2024/03/20 10:11:14;;;;;;;7.95;5.28;;;22.20;96.40;;;;;;5032407;28;20140;-51
2024/03/20 10:13:41;;;;;;;11.73;5.10;;;22.50;96.30;;;;;;5032414;28;20025;-47
2024/03/20 10:16:08;;;;;;;6.55;3.97;;;22.30;96.60;;;;;;5032323;28;20033;-52
2024/03/20 10:18:35;;;;;;;10.02;4.70;;;22.80;95.60;;;;;;5032470;28;20033;-52
2024/03/20 10:21:01;;;;;;;10.35;4.88;;;22.80;95.40;;;;;;5032681;28;20465;-51
2024/03/20 10:23:27;;;;;;;7.90;4.35;;;22.60;95.00;;;;;;5032681;28;20484;-51
2024/03/20 10:25:56;;;;;;;8.30;4.47;;;22.60;95.70;;;;;;5032746;28;20116;-52
2024/03/20 10:28:23;;;;;;;7.97;4.78;;;23.10;95.00;;;;;;5032714;28;20037;-53
2024/03/20 10:30:51;;;;;;;7.72;4.70;;;23.10;94.80;;;;;;5032487;28;20718;-51
2024/03/20 10:33:18;;;;;;;8.07;4.93;;;23.40;95.00;;;;;;5032500;28;20037;-49
2024/03/20 10:35:51;;;;;;;9.65;4.40;;;24.00;94.10;;;;;;5032577;28;20036;-53
2024/03/20 10:38:18;;;;;;;7.82;5.13;;;24.30;93.80;;;;;;5032669;28;20040;-50
2024/03/20 10:40:51;;;;;;;9.88;5.22;;;24.40;92.60;;;;;;5032637;28;20044;-48
2024/03/20 10:43:21;;;;;;;11.63;6.07;;;24.70;92.40;;;;;;5032609;28;20432;-53
2024/03/20 10:45:48;;;;;;;9.80;5.70;;;24.80;92.10;;;;;;5032536;28;20034;-52
2024/03/20 10:48:18;;;;;;;13.30;5.50;;;25.20;91.20;;;;;;5032497;28;20091;-51
2024/03/20 10:50:49;;;;;;;8.65;4.93;;;25.20;91.00;;;;;;5032388;28;20057;-47
2024/03/20 10:53:15;;;;;;;8.15;4.93;;;25.10;90.90;;;;;;5032478;28;20069;-52
2024/03/20 10:55:43;;;;;;;9.82;5.55;;;25.70;90.10;;;;;;5032079;28;20025;-50
2024/03/20 10:58:15;;;;;;;8.80;5.88;;;26.00;88.60;;;;;;5032388;28;20044;-50
2024/03/20 11:00:44;;;;;;;9.18;5.88;;;25.70;89.20;;;;;;5032037;28;20032;-52
2024/03/20 11:03:50;;;;;;;10.38;5.35;;;26.30;87.20;;;;;;5032134;28;20041;-51
2024/03/20 11:06:31;;;;;;;8.07;4.43;;;26.10;86.40;;;;;;5032202;28;20060;-51
2024/03/20 11:08:58;;;;;;;7.03;4.53;;;26.00;86.90;;;;;;5031993;28;20025;-52
2024/03/20 11:11:28;;;;;;;9.65;5.03;;;26.10;86.30;;;;;;5031955;28;20037;-50
2024/03/20 11:13:57;;;;;;;7.93;5.20;;;25.80;85.50;;;;;;5032038;28;20041;-53
2024/03/20 11:16:23;;;;;;;12.80;5.63;;;25.40;86.10;;;;;;5032027;28;20555;-51
2024/03/20 11:18:57;;;;;;;9.63;5.25;;;25.00;87.00;;;;;;5032160;28;20025;-53
2024/03/20 11:21:26;;;;;;;8.98;5.22;;;24.40;89.00;;;;;;5031955;28;20386;-52
2024/03/20 11:23:53;;;;;;;9.32;5.47;;;24.40;89.10;;;;;;5031988;28;20386;-52
2024/03/20 11:26:19;;;;;;;12.05;5.70;;;24.50;88.00;;;;;;5032031;28;20531;-52
2024/03/20 11:28:47;;;;;;;8.98;5.38;;;24.30;89.30;;;;;;5032030;28;20197;-53
2024/03/20 11:31:13;;;;;;;12.68;4.95;;;24.20;90.90;;;;;;5047100;28;20041;-50
2024/03/20 11:33:42;;;;;;;11.45;5.53;;;24.50;89.80;;;;;;5031733;28;20556;-51
2024/03/20 11:36:12;;;;;;;11.13;5.20;;;24.70;88.00;;;;;;5031795;28;20038;-48
2024/03/20 11:38:38;;;;;;;9.15;5.00;;;24.70;87.50;;;;;;5031894;28;20116;-51
2024/03/20 11:41:04;;;;;;;11.80;4.38;;;24.60;88.90;;;;;;5031815;28;20033;-51
2024/03/20 11:43:33;;;;;;;8.75;4.30;;;24.40;89.80;;;;;;5032765;28;20029;-52
2024/03/20 11:45:59;;;;;;;9.63;4.35;;;24.50;88.40;;;;;;5035382;28;20037;-51
2024/03/20 11:48:25;;;;;;;8.43;4.20;;;24.20;90.00;;;;;;5035469;28;20034;-52
2024/03/20 11:50:51;;;;;;;10.05;4.70;;;24.00;90.20;;;;;;5035072;28;20072;-53
2024/03/20 11:53:17;;;;;;;9.23;4.38;;;24.10;90.50;;;;;;5035557;28;20030;-52
2024/03/20 11:55:43;;;;;;;6.75;3.60;;;24.70;89.00;;;;;;5035061;28;20025;-52
2024/03/20 11:58:12;;;;;;;7.65;3.47;;;24.80;88.90;;;;;;5035050;28;20370;-51
2024/03/20 12:00:40;;;;;;;5.93;3.08;;;25.20;87.70;;;;;;5034841;28;20061;-49
2024/03/20 12:03:22;;;;;;;6.43;2.67;;;25.60;84.30;;;;;;5034979;28;20470;-52
2024/03/20 12:05:47;;;;;;;8.25;3.10;;;25.70;84.30;;;;;;5034836;28;20028;-52
2024/03/20 12:08:14;;;;;;;6.60;2.90;;;25.50;85.60;;;;;;5034859;28;20390;-50
2024/03/20 12:10:42;;;;;;;6.22;2.65;;;25.60;83.10;;;;;;5034779;28;20033;-49
2024/03/20 12:13:12;;;;;;;5.63;3.10;;;25.40;83.10;;;;;;5034858;28;20021;-51
2024/03/20 12:15:39;;;;;;;5.97;3.30;;;25.70;84.20;;;;;;5034497;28;20030;-51
2024/03/20 12:18:05;;;;;;;7.40;3.70;;;25.50;85.70;;;;;;5034743;28;20078;-53
2024/03/20 12:20:31;;;;;;;7.93;4.20;;;25.40;84.60;;;;;;5034570;28;20108;-53
2024/03/20 12:22:57;;;;;;;6.53;2.90;;;25.50;85.20;;;;;;5034924;28;20035;-53
2024/03/20 12:25:23;;;;;;;5.80;2.88;;;25.30;82.20;;;;;;5034529;28;20030;-53
2024/03/20 12:27:48;;;;;;;5.90;2.83;;;25.00;85.00;;;;;;5034642;28;20033;-53
2024/03/20 12:30:14;;;;;;;5.47;2.55;;;24.80;84.80;;;;;;5034349;28;20056;-49
2024/03/20 12:32:40;;;;;;;5.75;2.70;;;24.40;85.70;;;;;;5034606;28;20436;-50
2024/03/20 12:35:06;;;;;;;6.68;2.90;;;24.40;85.10;;;;;;5034102;28;20113;-52
2024/03/20 12:37:33;;;;;;;8.05;2.80;;;24.30;86.00;;;;;;5034219;28;20033;-52
2024/03/20 12:39:59;;;;;;;7.13;2.55;;;23.80;86.60;;;;;;5034081;28;20120;-52
2024/03/20 12:42:25;;;;;;;7.30;3.30;;;23.40;89.90;;;;;;5034294;28;20512;-47
2024/03/20 12:44:51;;;;;;;5.13;2.33;;;23.40;86.80;;;;;;5033938;28;20056;-52
2024/03/20 12:47:17;;;;;;;5.57;2.70;;;23.10;88.70;;;;;;5034254;28;20041;-50